sensor_id;sensor_type;location;lat;lon;timestamp;pressure;altitude;pressure_sealevel;temperature;humidity
68807;BME280;55800;54.272;18.558;2023-02-16T00:00:36;101746.03;;;3.73;74.13
68807;BME280;55800;54.272;18.558;2023-02-16T00:03:26;101740.75;;;3.70;74.18
68807;BME280;55800;54.272;18.558;2023-02-16T00:05:56;101740.72;;;3.73;74.47
68807;BME280;55800;54.272;18.558;2023-02-16T00:08:25;101731.94;;;3.73;74.44
68807;BME280;55800;54.272;18.558;2023-02-16T00:10:54;101736.34;;;3.74;74.63
68807;BME280;55800;54.272;18.558;2023-02-16T00:13:42;101732.81;;;3.73;74.58
68807;BME280;55800;54.272;18.558;2023-02-16T00:16:18;101722.22;;;3.73;74.38
68807;BME280;55800;54.272;18.558;2023-02-16T00:18:48;101721.38;;;3.73;74.19
68807;BME280;55800;54.272;18.558;2023-02-16T00:21:17;101726.63;;;3.70;74.35
68807;BME280;55800;54.272;18.558;2023-02-16T00:23:48;101716.97;;;3.75;74.16
68807;BME280;55800;54.272;18.558;2023-02-16T00:26:19;101713.41;;;3.70;74.28
68807;BME280;55800;54.272;18.558;2023-02-16T00:28:50;101709.91;;;3.71;74.60
68807;BME280;55800;54.272;18.558;2023-02-16T00:31:23;101710.75;;;3.68;74.66
68807;BME280;55800;54.272;18.558;2023-02-16T00:33:55;101702.81;;;3.65;74.54
68807;BME280;55800;54.272;18.558;2023-02-16T00:36:25;101701.91;;;3.65;74.22
68807;BME280;55800;54.272;18.558;2023-02-16T00:38:54;101701.03;;;3.61;74.58
68807;BME280;55800;54.272;18.558;2023-02-16T00:41:24;101708.97;;;3.58;74.89
68807;BME280;55800;54.272;18.558;2023-02-16T00:44:15;101699.25;;;3.59;74.74
68807;BME280;55800;54.272;18.558;2023-02-16T00:46:47;101703.66;;;3.63;74.67
68807;BME280;55800;54.272;18.558;2023-02-16T00:49:18;101696.63;;;3.65;74.42
68807;BME280;55800;54.272;18.558;2023-02-16T00:51:48;101694.88;;;3.65;74.21
68807;BME280;55800;54.272;18.558;2023-02-16T00:54:18;101699.28;;;3.65;74.73
68807;BME280;55800;54.272;18.558;2023-02-16T00:56:47;101701.94;;;3.66;74.86
68807;BME280;55800;54.272;18.558;2023-02-16T00:59:19;101697.53;;;3.70;74.21
68807;BME280;55800;54.272;18.558;2023-02-16T01:01:51;101697.53;;;3.64;74.44
68807;BME280;55800;54.272;18.558;2023-02-16T01:04:23;101685.19;;;3.58;74.71
68807;BME280;55800;54.272;18.558;2023-02-16T01:06:52;101685.19;;;3.58;74.81
68807;BME280;55800;54.272;18.558;2023-02-16T01:09:39;101687.78;;;3.57;74.88
68807;BME280;55800;54.272;18.558;2023-02-16T01:12:27;101689.56;;;3.53;74.71
68807;BME280;55800;54.272;18.558;2023-02-16T01:14:58;101686.03;;;3.51;74.83
68807;BME280;55800;54.272;18.558;2023-02-16T01:17:30;101676.28;;;3.43;74.86
68807;BME280;55800;54.272;18.558;2023-02-16T01:20:00;101679.84;;;3.49;74.83
68807;BME280;55800;54.272;18.558;2023-02-16T01:22:29;101672.78;;;3.47;74.90
68807;BME280;55800;54.272;18.558;2023-02-16T01:25:00;101668.38;;;3.47;75.08
68807;BME280;55800;54.272;18.558;2023-02-16T01:27:29;101668.41;;;3.55;74.87
68807;BME280;55800;54.272;18.558;2023-02-16T01:29:59;101662.22;;;3.47;74.83
68807;BME280;55800;54.272;18.558;2023-02-16T01:32:30;101653.38;;;3.43;75.10
68807;BME280;55800;54.272;18.558;2023-02-16T01:35:00;101652.50;;;3.46;74.74
68807;BME280;55800;54.272;18.558;2023-02-16T01:37:29;101647.22;;;3.43;74.73
68807;BME280;55800;54.272;18.558;2023-02-16T01:39:59;101640.16;;;3.43;74.84
68807;BME280;55800;54.272;18.558;2023-02-16T01:42:33;101649.00;;;3.45;74.67
68807;BME280;55800;54.272;18.558;2023-02-16T01:45:10;101640.16;;;3.40;74.59
68807;BME280;55800;54.272;18.558;2023-02-16T01:47:46;101637.50;;;3.42;74.91
68807;BME280;55800;54.272;18.558;2023-02-16T01:50:18;101639.25;;;3.40;74.89
68807;BME280;55800;54.272;18.558;2023-02-16T01:52:52;101632.22;;;3.39;74.87
68807;BME280;55800;54.272;18.558;2023-02-16T01:55:26;101625.19;;;3.41;74.95
68807;BME280;55800;54.272;18.558;2023-02-16T01:58:00;101620.75;;;3.38;74.91
68807;BME280;55800;54.272;18.558;2023-02-16T02:03:48;101613.66;;;3.22;74.64
68807;BME280;55800;54.272;18.558;2023-02-16T02:06:38;101609.25;;;3.23;74.86
68807;BME280;55800;54.272;18.558;2023-02-16T02:09:12;101600.44;;;3.19;74.76
68807;BME280;55800;54.272;18.558;2023-02-16T02:11:48;101599.56;;;3.20;74.61
68807;BME280;55800;54.272;18.558;2023-02-16T02:14:19;101606.63;;;3.24;74.87
68807;BME280;55800;54.272;18.558;2023-02-16T02:16:56;101606.63;;;3.27;74.88
68807;BME280;55800;54.272;18.558;2023-02-16T02:19:29;101603.97;;;3.26;75.18
68807;BME280;55800;54.272;18.558;2023-02-16T02:22:25;101596.94;;;3.26;75.40
68807;BME280;55800;54.272;18.558;2023-02-16T02:25:36;101587.22;;;3.19;75.00
68807;BME280;55800;54.272;18.558;2023-02-16T02:28:16;101587.19;;;3.14;74.78
68807;BME280;55800;54.272;18.558;2023-02-16T02:30:50;101579.28;;;3.13;74.99
68807;BME280;55800;54.272;18.558;2023-02-16T02:33:36;101581.03;;;3.12;74.84
68807;BME280;55800;54.272;18.558;2023-02-16T02:36:19;101584.56;;;3.14;75.56
68807;BME280;55800;54.272;18.558;2023-02-16T02:39:00;101577.53;;;3.18;75.48
68807;BME280;55800;54.272;18.558;2023-02-16T02:41:34;101566.94;;;3.16;75.26
68807;BME280;55800;54.272;18.558;2023-02-16T02:44:28;101569.59;;;3.15;74.91
68807;BME280;55800;54.272;18.558;2023-02-16T02:46:57;101559.91;;;3.09;74.98
68807;BME280;55800;54.272;18.558;2023-02-16T02:49:27;101559.88;;;3.06;75.04
68807;BME280;55800;54.272;18.558;2023-02-16T02:51:57;101556.38;;;3.07;74.77
68807;BME280;55800;54.272;18.558;2023-02-16T02:54:30;101537.00;;;3.07;74.80
68807;BME280;55800;54.272;18.558;2023-02-16T02:57:23;101546.66;;;3.08;75.05
68807;BME280;55800;54.272;18.558;2023-02-16T03:00:17;101542.25;;;3.10;75.40
68807;BME280;55800;54.272;18.558;2023-02-16T03:03:09;101543.16;;;3.10;75.04
68807;BME280;55800;54.272;18.558;2023-02-16T03:05:43;101543.16;;;3.10;74.85
68807;BME280;55800;54.272;18.558;2023-02-16T03:08:17;101532.59;;;3.15;74.73
68807;BME280;55800;54.272;18.558;2023-02-16T03:10:51;101526.41;;;3.08;75.01
68807;BME280;55800;54.272;18.558;2023-02-16T03:13:42;101526.41;;;3.05;75.07
68807;BME280;55800;54.272;18.558;2023-02-16T03:16:19;101514.94;;;3.00;75.15
68807;BME280;55800;54.272;18.558;2023-02-16T03:18:50;101515.84;;;3.01;75.33
68807;BME280;55800;54.272;18.558;2023-02-16T03:21:37;101514.94;;;3.02;75.44
68807;BME280;55800;54.272;18.558;2023-02-16T03:24:27;101514.06;;;2.98;74.93
68807;BME280;55800;54.272;18.558;2023-02-16T03:27:19;101514.06;;;3.01;75.49
68807;BME280;55800;54.272;18.558;2023-02-16T03:33:47;101514.03;;;2.91;75.78
68807;BME280;55800;54.272;18.558;2023-02-16T03:36:22;101515.81;;;2.96;75.46
68807;BME280;55800;54.272;18.558;2023-02-16T03:38:52;101512.28;;;2.94;75.24
68807;BME280;55800;54.272;18.558;2023-02-16T03:41:22;101510.53;;;2.93;75.73
68807;BME280;55800;54.272;18.558;2023-02-16T03:43:52;101522.84;;;2.88;75.30
68807;BME280;55800;54.272;18.558;2023-02-16T03:46:21;101527.25;;;2.88;75.53
68807;BME280;55800;54.272;18.558;2023-02-16T03:48:52;101526.34;;;2.89;75.32
68807;BME280;55800;54.272;18.558;2023-02-16T03:51:21;101523.69;;;2.89;75.52
68807;BME280;55800;54.272;18.558;2023-02-16T03:53:51;101518.44;;;2.92;75.32
68807;BME280;55800;54.272;18.558;2023-02-16T03:56:21;101514.03;;;2.89;75.14
68807;BME280;55800;54.272;18.558;2023-02-16T03:58:50;101510.50;;;2.87;75.19
68807;BME280;55800;54.272;18.558;2023-02-16T04:01:19;101501.69;;;2.85;75.00
68807;BME280;55800;54.272;18.558;2023-02-16T04:03:50;101513.13;;;2.83;75.00
68807;BME280;55800;54.272;18.558;2023-02-16T04:06:19;101502.56;;;2.84;75.15
68807;BME280;55800;54.272;18.558;2023-02-16T04:08:49;101493.78;;;2.84;74.80
68807;BME280;55800;54.272;18.558;2023-02-16T04:11:18;101499.03;;;2.82;75.13
68807;BME280;55800;54.272;18.558;2023-02-16T04:14:05;101491.09;;;2.82;75.01
68807;BME280;55800;54.272;18.558;2023-02-16T04:16:34;101501.66;;;2.82;74.78
68807;BME280;55800;54.272;18.558;2023-02-16T04:19:05;101495.53;;;2.83;74.85
68807;BME280;55800;54.272;18.558;2023-02-16T04:21:34;101486.72;;;2.84;74.69
68807;BME280;55800;54.272;18.558;2023-02-16T04:24:04;101479.69;;;2.85;74.80
68807;BME280;55800;54.272;18.558;2023-02-16T04:26:34;101474.41;;;2.85;75.11
68807;BME280;55800;54.272;18.558;2023-02-16T04:29:04;101477.03;;;2.85;74.86
68807;BME280;55800;54.272;18.558;2023-02-16T04:31:33;101477.94;;;2.88;74.84
68807;BME280;55800;54.272;18.558;2023-02-16T04:34:04;101460.31;;;2.86;74.64
68807;BME280;55800;54.272;18.558;2023-02-16T04:36:33;101473.53;;;2.87;74.79
68807;BME280;55800;54.272;18.558;2023-02-16T04:39:03;101466.50;;;2.89;74.88
68807;BME280;55800;54.272;18.558;2023-02-16T04:41:32;101467.38;;;2.90;75.49
68807;BME280;55800;54.272;18.558;2023-02-16T04:44:01;101468.25;;;2.87;74.98
68807;BME280;55800;54.272;18.558;2023-02-16T04:46:31;101460.31;;;2.86;74.69
68807;BME280;55800;54.272;18.558;2023-02-16T04:49:00;101466.47;;;2.86;74.77
68807;BME280;55800;54.272;18.558;2023-02-16T04:51:31;101466.47;;;2.86;74.81
68807;BME280;55800;54.272;18.558;2023-02-16T04:54:01;101462.97;;;2.87;75.01
68807;BME280;55800;54.272;18.558;2023-02-16T04:56:30;101470.88;;;2.87;74.83
68807;BME280;55800;54.272;18.558;2023-02-16T04:58:59;101460.31;;;2.87;75.03
68807;BME280;55800;54.272;18.558;2023-02-16T05:01:29;101469.09;;;2.86;74.98
68807;BME280;55800;54.272;18.558;2023-02-16T05:03:58;101458.56;;;2.89;75.09
68807;BME280;55800;54.272;18.558;2023-02-16T05:06:27;101450.69;;;2.98;75.10
68807;BME280;55800;54.272;18.558;2023-02-16T05:08:58;101454.16;;;2.91;74.84
68807;BME280;55800;54.272;18.558;2023-02-16T05:11:27;101448.00;;;2.89;74.86
68807;BME280;55800;54.272;18.558;2023-02-16T05:14:18;101455.91;;;2.91;75.49
68807;BME280;55800;54.272;18.558;2023-02-16T05:17:05;101443.59;;;2.93;75.35
68807;BME280;55800;54.272;18.558;2023-02-16T05:19:35;101442.72;;;2.94;75.82
68807;BME280;55800;54.272;18.558;2023-02-16T05:22:05;101446.25;;;2.93;75.77
68807;BME280;55800;54.272;18.558;2023-02-16T05:24:36;101435.69;;;2.96;75.88
68807;BME280;55800;54.272;18.558;2023-02-16T05:27:07;101440.97;;;2.90;76.06
68807;BME280;55800;54.272;18.558;2023-02-16T05:29:37;101445.38;;;2.92;75.53
68807;BME280;55800;54.272;18.558;2023-02-16T05:32:07;101448.00;;;2.91;75.92
68807;BME280;55800;54.272;18.558;2023-02-16T05:34:36;101451.53;;;2.88;75.96
68807;BME280;55800;54.272;18.558;2023-02-16T05:37:06;101463.84;;;2.89;75.99
68807;BME280;55800;54.272;18.558;2023-02-16T05:39:37;101461.19;;;2.83;75.94
68807;BME280;55800;54.272;18.558;2023-02-16T05:42:06;101465.59;;;2.80;76.20
68807;BME280;55800;54.272;18.558;2023-02-16T05:44:36;101452.38;;;2.78;76.17
68807;BME280;55800;54.272;18.558;2023-02-16T05:47:06;101460.31;;;2.75;76.25
68807;BME280;55800;54.272;18.558;2023-02-16T05:49:35;101458.53;;;2.77;76.25
68807;BME280;55800;54.272;18.558;2023-02-16T05:52:04;101457.63;;;2.72;76.14
68807;BME280;55800;54.272;18.558;2023-02-16T05:54:35;101455.00;;;2.69;76.34
68807;BME280;55800;54.272;18.558;2023-02-16T05:57:04;101459.41;;;2.69;76.02
68807;BME280;55800;54.272;18.558;2023-02-16T05:59:34;101460.25;;;2.68;76.50
68807;BME280;55800;54.272;18.558;2023-02-16T06:02:03;101459.38;;;2.67;76.10
68807;BME280;55800;54.272;18.558;2023-02-16T06:04:32;101462.00;;;2.61;76.36
68807;BME280;55800;54.272;18.558;2023-02-16T06:07:01;101458.44;;;2.55;76.15
68807;BME280;55800;54.272;18.558;2023-02-16T06:09:31;101459.31;;;2.51;76.55
68807;BME280;55800;54.272;18.558;2023-02-16T06:12:02;101452.28;;;2.48;76.12
68807;BME280;55800;54.272;18.558;2023-02-16T06:14:31;101447.88;;;2.49;75.97
68807;BME280;55800;54.272;18.558;2023-02-16T06:17:00;101444.34;;;2.51;76.22
68807;BME280;55800;54.272;18.558;2023-02-16T06:19:30;101444.34;;;2.45;76.17
68807;BME280;55800;54.272;18.558;2023-02-16T06:21:59;101440.81;;;2.46;75.92
68807;BME280;55800;54.272;18.558;2023-02-16T06:24:29;101442.59;;;2.49;76.08
68807;BME280;55800;54.272;18.558;2023-02-16T06:26:58;101427.63;;;2.49;75.72
68807;BME280;55800;54.272;18.558;2023-02-16T06:29:29;101430.28;;;2.51;76.43
68807;BME280;55800;54.272;18.558;2023-02-16T06:31:58;101426.78;;;2.55;76.80
68807;BME280;55800;54.272;18.558;2023-02-16T06:34:28;101425.91;;;2.57;76.09
68807;BME280;55800;54.272;18.558;2023-02-16T06:36:57;101424.16;;;2.56;75.97
68807;BME280;55800;54.272;18.558;2023-02-16T06:39:27;101429.44;;;2.59;76.57
68807;BME280;55800;54.272;18.558;2023-02-16T06:41:56;101430.31;;;2.61;76.78
68807;BME280;55800;54.272;18.558;2023-02-16T06:44:26;101426.81;;;2.65;76.05
68807;BME280;55800;54.272;18.558;2023-02-16T06:46:56;101433.84;;;2.62;76.34
68807;BME280;55800;54.272;18.558;2023-02-16T06:49:26;101428.56;;;2.62;75.97
68807;BME280;55800;54.272;18.558;2023-02-16T06:51:55;101424.16;;;2.65;75.94
68807;BME280;55800;54.272;18.558;2023-02-16T06:54:24;101425.06;;;2.69;76.03
68807;BME280;55800;54.272;18.558;2023-02-16T06:56:53;101425.06;;;2.70;76.14
68807;BME280;55800;54.272;18.558;2023-02-16T06:59:23;101425.06;;;2.76;76.10
68807;BME280;55800;54.272;18.558;2023-02-16T07:01:52;101422.47;;;2.79;76.27
68807;BME280;55800;54.272;18.558;2023-02-16T07:04:23;101418.94;;;2.86;76.13
68807;BME280;55800;54.272;18.558;2023-02-16T07:06:52;101415.41;;;2.83;76.14
68807;BME280;55800;54.272;18.558;2023-02-16T07:09:22;101408.38;;;2.79;76.04
68807;BME280;55800;54.272;18.558;2023-02-16T07:11:51;101423.34;;;2.89;76.09
68807;BME280;55800;54.272;18.558;2023-02-16T07:14:21;101414.56;;;2.88;75.59
68807;BME280;55800;54.272;18.558;2023-02-16T07:16:50;101393.41;;;2.85;75.99
68807;BME280;55800;54.272;18.558;2023-02-16T07:19:21;101395.19;;;2.82;76.16
68807;BME280;55800;54.272;18.558;2023-02-16T07:21:51;101395.16;;;2.80;75.92
68807;BME280;55800;54.272;18.558;2023-02-16T07:24:22;101396.03;;;2.82;75.81
68807;BME280;55800;54.272;18.558;2023-02-16T07:26:51;101389.91;;;2.83;75.92
68807;BME280;55800;54.272;18.558;2023-02-16T07:29:21;101401.34;;;2.91;76.16
68807;BME280;55800;54.272;18.558;2023-02-16T07:31:50;101396.09;;;2.94;75.94
68807;BME280;55800;54.272;18.558;2023-02-16T07:34:22;101389.03;;;2.93;75.93
68807;BME280;55800;54.272;18.558;2023-02-16T07:36:51;101400.50;;;2.98;76.26
68807;BME280;55800;54.272;18.558;2023-02-16T07:39:21;101392.56;;;2.98;76.27
68807;BME280;55800;54.272;18.558;2023-02-16T07:41:50;101396.06;;;2.97;76.06
68807;BME280;55800;54.272;18.558;2023-02-16T07:44:19;101394.31;;;2.98;76.03
68807;BME280;55800;54.272;18.558;2023-02-16T07:46:48;101392.53;;;2.97;76.18
68807;BME280;55800;54.272;18.558;2023-02-16T07:49:18;101385.53;;;2.99;76.29
68807;BME280;55800;54.272;18.558;2023-02-16T07:51:48;101389.91;;;3.01;75.98
68807;BME280;55800;54.272;18.558;2023-02-16T07:54:18;101398.75;;;3.05;75.74
68807;BME280;55800;54.272;18.558;2023-02-16T07:56:48;101404.91;;;3.08;75.95
68807;BME280;55800;54.272;18.558;2023-02-16T07:59:17;101400.50;;;3.10;75.95
68807;BME280;55800;54.272;18.558;2023-02-16T08:01:46;101406.66;;;3.14;75.94
68807;BME280;55800;54.272;18.558;2023-02-16T08:04:16;101412.81;;;3.16;75.78
68807;BME280;55800;54.272;18.558;2023-02-16T08:06:45;101410.19;;;3.14;75.99
68807;BME280;55800;54.272;18.558;2023-02-16T08:09:17;101408.44;;;3.20;75.83
68807;BME280;55800;54.272;18.558;2023-02-16T08:11:46;101406.66;;;3.17;76.01
68807;BME280;55800;54.272;18.558;2023-02-16T08:14:16;101419.00;;;3.21;75.82
68807;BME280;55800;54.272;18.558;2023-02-16T08:16:45;101404.91;;;3.24;75.96
68807;BME280;55800;54.272;18.558;2023-02-16T08:19:18;101412.81;;;3.31;75.55
68807;BME280;55800;54.272;18.558;2023-02-16T08:21:47;101414.59;;;3.29;75.83
68807;BME280;55800;54.272;18.558;2023-02-16T08:24:18;101419.00;;;3.32;75.49
68807;BME280;55800;54.272;18.558;2023-02-16T08:26:47;101417.25;;;3.38;75.59
68807;BME280;55800;54.272;18.558;2023-02-16T08:29:18;101418.09;;;3.42;75.66
68807;BME280;55800;54.272;18.558;2023-02-16T08:31:49;101410.19;;;3.39;75.72
68807;BME280;55800;54.272;18.558;2023-02-16T08:34:19;101403.13;;;3.47;75.64
68807;BME280;55800;54.272;18.558;2023-02-16T08:36:52;101404.03;;;3.49;75.59
68807;BME280;55800;54.272;18.558;2023-02-16T08:39:25;101407.53;;;3.52;75.82
68807;BME280;55800;54.272;18.558;2023-02-16T08:41:55;101412.81;;;3.61;75.61
68807;BME280;55800;54.272;18.558;2023-02-16T08:44:26;101418.13;;;3.64;75.54
68807;BME280;55800;54.272;18.558;2023-02-16T08:46:58;101408.41;;;3.59;75.68
68807;BME280;55800;54.272;18.558;2023-02-16T08:49:28;101401.38;;;3.58;75.84
68807;BME280;55800;54.272;18.558;2023-02-16T08:51:58;101392.53;;;3.59;75.86
68807;BME280;55800;54.272;18.558;2023-02-16T08:54:30;101387.25;;;3.63;76.08
68807;BME280;55800;54.272;18.558;2023-02-16T08:57:00;101390.78;;;3.73;76.14
68807;BME280;55800;54.272;18.558;2023-02-16T08:59:30;101389.00;;;3.81;76.02
68807;BME280;55800;54.272;18.558;2023-02-16T09:02:01;101392.50;;;3.89;75.84
68807;BME280;55800;54.272;18.558;2023-02-16T09:04:31;101387.19;;;3.95;75.85
68807;BME280;55800;54.272;18.558;2023-02-16T09:07:00;101381.88;;;4.04;76.04
68807;BME280;55800;54.272;18.558;2023-02-16T09:09:31;101390.69;;;4.11;76.05
68807;BME280;55800;54.272;18.558;2023-02-16T09:12:01;101375.63;;;4.20;75.98
68807;BME280;55800;54.272;18.558;2023-02-16T09:14:30;101376.50;;;4.28;76.02
68807;BME280;55800;54.272;18.558;2023-02-16T09:16:59;101383.50;;;4.38;75.79
68807;BME280;55800;54.272;18.558;2023-02-16T09:19:30;101393.19;;;4.47;75.57
68807;BME280;55800;54.272;18.558;2023-02-16T09:21:59;101393.16;;;4.51;75.82
68807;BME280;55800;54.272;18.558;2023-02-16T09:24:31;101391.34;;;4.56;75.94
68807;BME280;55800;54.272;18.558;2023-02-16T09:27:01;101378.94;;;4.63;76.01
68807;BME280;55800;54.272;18.558;2023-02-16T09:29:31;101372.75;;;4.70;75.60
68807;BME280;55800;54.272;18.558;2023-02-16T09:32:01;101375.34;;;4.79;75.44
68807;BME280;55800;54.272;18.558;2023-02-16T09:34:31;101377.06;;;4.85;75.70
68807;BME280;55800;54.272;18.558;2023-02-16T09:37:01;101372.59;;;4.91;75.56
68807;BME280;55800;54.272;18.558;2023-02-16T09:39:31;101366.38;;;4.97;75.56
68807;BME280;55800;54.272;18.558;2023-02-16T09:42:14;101367.19;;;5.03;75.53
68807;BME280;55800;54.272;18.558;2023-02-16T09:44:52;101365.38;;;5.10;75.64
68807;BME280;55800;54.272;18.558;2023-02-16T09:47:26;101365.34;;;5.17;75.45
68807;BME280;55800;54.272;18.558;2023-02-16T09:50:00;101366.16;;;5.24;75.33
68807;BME280;55800;54.272;18.558;2023-02-16T09:52:36;101367.81;;;5.35;74.80
68807;BME280;55800;54.272;18.558;2023-02-16T09:55:12;101351.00;;;5.39;74.83
68807;BME280;55800;54.272;18.558;2023-02-16T09:57:53;101361.50;;;5.50;74.81
68807;BME280;55800;54.272;18.558;2023-02-16T10:00:46;101363.22;;;5.57;74.73
68807;BME280;55800;54.272;18.558;2023-02-16T10:03:39;101351.66;;;5.63;75.39
68807;BME280;55800;54.272;18.558;2023-02-16T10:06:32;101353.34;;;5.70;75.54
68807;BME280;55800;54.272;18.558;2023-02-16T10:09:07;101364.78;;;5.76;75.10
68807;BME280;55800;54.272;18.558;2023-02-16T10:11:44;101362.91;;;5.89;75.13
68807;BME280;55800;54.272;18.558;2023-02-16T10:14:24;101369.03;;;5.94;75.48
68807;BME280;55800;54.272;18.558;2023-02-16T10:17:05;101355.69;;;6.01;75.37
68807;BME280;55800;54.272;18.558;2023-02-16T10:19:40;101353.81;;;6.09;75.39
68807;BME280;55800;54.272;18.558;2023-02-16T10:22:14;101356.41;;;6.17;74.78
68807;BME280;55800;54.272;18.558;2023-02-16T10:24:54;101351.88;;;6.22;75.26
68807;BME280;55800;54.272;18.558;2023-02-16T10:27:34;101351.84;;;6.26;75.37
68807;BME280;55800;54.272;18.558;2023-02-16T10:30:12;101353.53;;;6.34;75.40
68807;BME280;55800;54.272;18.558;2023-02-16T10:32:53;101360.50;;;6.42;75.24
68807;BME280;55800;54.272;18.558;2023-02-16T10:35:31;101348.00;;;6.49;75.27
68807;BME280;55800;54.272;18.558;2023-02-16T10:38:08;101348.75;;;6.58;74.71
68807;BME280;55800;54.272;18.558;2023-02-16T10:40:49;101339.78;;;6.64;74.82
68807;BME280;55800;54.272;18.558;2023-02-16T10:43:23;101345.94;;;6.69;75.37
68807;BME280;55800;54.272;18.558;2023-02-16T10:45:55;101343.19;;;6.75;75.44
68807;BME280;55800;54.272;18.558;2023-02-16T10:48:27;101343.94;;;6.83;75.42
68807;BME280;55800;54.272;18.558;2023-02-16T10:51:00;101339.41;;;6.91;75.42
68807;BME280;55800;54.272;18.558;2023-02-16T10:53:36;101344.56;;;7.00;75.50
68807;BME280;55800;54.272;18.558;2023-02-16T10:56:37;101340.88;;;7.08;75.64
68807;BME280;55800;54.272;18.558;2023-02-16T10:59:15;101335.47;;;7.16;75.60
68807;BME280;55800;54.272;18.558;2023-02-16T11:01:47;101334.44;;;7.23;75.48
68807;BME280;55800;54.272;18.558;2023-02-16T11:04:37;101325.41;;;7.32;75.54
68807;BME280;55800;54.272;18.558;2023-02-16T11:07:08;101333.31;;;7.38;74.56
68807;BME280;55800;54.272;18.558;2023-02-16T11:09:39;101329.66;;;7.43;73.95
68807;BME280;55800;54.272;18.558;2023-02-16T11:12:22;101327.78;;;7.50;73.43
68807;BME280;55800;54.272;18.558;2023-02-16T11:14:55;101322.28;;;7.59;72.98
68807;BME280;55800;54.272;18.558;2023-02-16T11:17:26;101316.09;;;7.58;71.67
68807;BME280;55800;54.272;18.558;2023-02-16T11:19:58;101310.69;;;7.61;73.06
68807;BME280;55800;54.272;18.558;2023-02-16T11:22:32;101321.31;;;7.61;72.89
68807;BME280;55800;54.272;18.558;2023-02-16T11:25:23;101314.16;;;7.66;73.33
68807;BME280;55800;54.272;18.558;2023-02-16T11:27:55;101312.28;;;7.71;72.65
68807;BME280;55800;54.272;18.558;2023-02-16T11:30:30;101311.28;;;7.77;72.07
68807;BME280;55800;54.272;18.558;2023-02-16T11:33:16;101310.34;;;7.79;72.40
68807;BME280;55800;54.272;18.558;2023-02-16T11:35:47;101313.81;;;7.84;72.24
68807;BME280;55800;54.272;18.558;2023-02-16T11:38:27;101322.66;;;7.86;73.12
68807;BME280;55800;54.272;18.558;2023-02-16T11:40:58;101311.16;;;7.84;74.01
68807;BME280;55800;54.272;18.558;2023-02-16T11:43:34;101304.84;;;7.88;74.15
68807;BME280;55800;54.272;18.558;2023-02-16T11:46:13;101295.00;;;7.92;74.27
68807;BME280;55800;54.272;18.558;2023-02-16T11:48:44;101295.72;;;8.00;73.49
68807;BME280;55800;54.272;18.558;2023-02-16T11:51:27;101288.47;;;8.07;73.96
68807;BME280;55800;54.272;18.558;2023-02-16T11:54:01;101281.25;;;8.13;74.58
68807;BME280;55800;54.272;18.558;2023-02-16T11:56:33;101287.22;;;8.24;73.44
68807;BME280;55800;54.272;18.558;2023-02-16T11:59:06;101273.75;;;8.32;74.33
68807;BME280;55800;54.272;18.558;2023-02-16T12:04:40;101262.56;;;8.56;73.89
68807;BME280;55800;54.272;18.558;2023-02-16T12:07:21;101260.63;;;8.62;72.62
68807;BME280;55800;54.272;18.558;2023-02-16T12:10:03;101255.09;;;8.70;72.80
68807;BME280;55800;54.272;18.558;2023-02-16T12:12:41;101258.59;;;8.74;72.31
68807;BME280;55800;54.272;18.558;2023-02-16T12:15:19;101249.50;;;8.82;72.98
68807;BME280;55800;54.272;18.558;2023-02-16T12:18:02;101256.41;;;8.89;71.81
68807;BME280;55800;54.272;18.558;2023-02-16T12:20:46;101251.94;;;8.90;72.45
68807;BME280;55800;54.272;18.558;2023-02-16T12:23:35;101248.34;;;8.92;73.06
68807;BME280;55800;54.272;18.558;2023-02-16T12:26:27;101248.25;;;8.95;72.70
68807;BME280;55800;54.272;18.558;2023-02-16T12:29:06;101250.69;;;9.04;72.67
68807;BME280;55800;54.272;18.558;2023-02-16T12:32:06;101242.50;;;9.12;71.38
68807;BME280;55800;54.272;18.558;2023-02-16T12:34:51;101251.28;;;9.15;71.63
68807;BME280;55800;54.272;18.558;2023-02-16T12:37:30;101241.34;;;9.20;72.11
68807;BME280;55800;54.272;18.558;2023-02-16T12:40:10;101241.22;;;9.26;72.34
68807;BME280;55800;54.272;18.558;2023-02-16T12:43:00;101238.56;;;9.26;71.25
68807;BME280;55800;54.272;18.558;2023-02-16T12:45:34;101242.94;;;9.27;72.12
68807;BME280;55800;54.272;18.558;2023-02-16T12:48:15;101239.28;;;9.31;71.27
68807;BME280;55800;54.272;18.558;2023-02-16T12:50:51;101238.13;;;9.41;70.96
68807;BME280;55800;54.272;18.558;2023-02-16T12:53:25;101238.97;;;9.43;69.21
68807;BME280;55800;54.272;18.558;2023-02-16T12:55:59;101246.16;;;9.41;69.18
68807;BME280;55800;54.272;18.558;2023-02-16T12:58:32;101253.22;;;9.42;69.13
68807;BME280;55800;54.272;18.558;2023-02-16T13:01:09;101243.50;;;9.40;69.60
68807;BME280;55800;54.272;18.558;2023-02-16T13:03:48;101247.88;;;9.42;69.13
68807;BME280;55800;54.272;18.558;2023-02-16T13:06:26;101241.78;;;9.37;69.34
68807;BME280;55800;54.272;18.558;2023-02-16T13:09:05;101246.28;;;9.35;68.35
68807;BME280;55800;54.272;18.558;2023-02-16T13:11:42;101241.94;;;9.33;68.27
68807;BME280;55800;54.272;18.558;2023-02-16T13:14:17;101242.88;;;9.30;69.18
68807;BME280;55800;54.272;18.558;2023-02-16T13:16:52;101237.53;;;9.30;68.89
68807;BME280;55800;54.272;18.558;2023-02-16T13:19:23;101235.72;;;9.32;67.95
68807;BME280;55800;54.272;18.558;2023-02-16T13:22:17;101241.94;;;9.31;68.86
68807;BME280;55800;54.272;18.558;2023-02-16T13:24:58;101237.53;;;9.30;68.49
68807;BME280;55800;54.272;18.558;2023-02-16T13:27:38;101235.72;;;9.31;69.00
68807;BME280;55800;54.272;18.558;2023-02-16T13:30:38;101238.38;;;9.32;69.07
68807;BME280;55800;54.272;18.558;2023-02-16T13:33:26;101236.50;;;9.36;69.53
68807;BME280;55800;54.272;18.558;2023-02-16T13:36:31;101241.75;;;9.39;68.92